sensor_id;sensor_type;location;lat;lon;timestamp;pressure;altitude;pressure_sealevel;temperature;humidity
41706;BME280;27385;51.096;17.190;2024-01-16T00:00:57;98556.27;;;0.29;89.63
41706;BME280;27385;51.096;17.190;2024-01-16T00:03:49;98555.31;;;0.27;89.90
41706;BME280;27385;51.096;17.190;2024-01-16T00:06:41;98560.46;;;0.26;90.16
41706;BME280;27385;51.096;17.190;2024-01-16T00:09:35;98559.92;;;0.23;90.27
41706;BME280;27385;51.096;17.190;2024-01-16T00:12:26;98563.41;;;0.23;90.64
41706;BME280;27385;51.096;17.190;2024-01-16T00:15:17;98569.96;;;0.22;90.53
41706;BME280;27385;51.096;17.190;2024-01-16T00:18:08;98566.36;;;0.23;90.78
41706;BME280;27385;51.096;17.190;2024-01-16T00:21:01;98575.75;;;0.22;90.91
41706;BME280;27385;51.096;17.190;2024-01-16T00:23:53;98593.89;;;0.21;91.09
41706;BME280;27385;51.096;17.190;2024-01-16T00:26:44;98610.84;;;0.21;91.25
41706;BME280;27385;51.096;17.190;2024-01-16T00:29:35;98628.91;;;0.14;93.53
41706;BME280;27385;51.096;17.190;2024-01-16T00:32:26;98633.60;;;-0.04;93.44
41706;BME280;27385;51.096;17.190;2024-01-16T00:35:17;98630.30;;;-0.17;93.07
41706;BME280;27385;51.096;17.190;2024-01-16T00:38:08;98628.32;;;-0.33;92.62
41706;BME280;27385;51.096;17.190;2024-01-16T00:40:57;98635.73;;;-0.49;92.51
41706;BME280;27385;51.096;17.190;2024-01-16T00:43:48;98637.65;;;-0.61;92.91
41706;BME280;27385;51.096;17.190;2024-01-16T00:46:39;98642.34;;;-0.72;92.85
41706;BME280;27385;51.096;17.190;2024-01-16T00:49:30;98656.50;;;-0.77;92.94
41706;BME280;27385;51.096;17.190;2024-01-16T00:52:21;98665.16;;;-0.84;93.27
41706;BME280;27385;51.096;17.190;2024-01-16T00:55:10;98668.77;;;-0.89;93.11
41706;BME280;27385;51.096;17.190;2024-01-16T00:58:01;98681.09;;;-0.92;93.24
41706;BME280;27385;51.096;17.190;2024-01-16T01:00:52;98688.21;;;-0.95;93.34
41706;BME280;27385;51.096;17.190;2024-01-16T01:03:43;98687.75;;;-0.97;93.46
41706;BME280;27385;51.096;17.190;2024-01-16T01:06:36;98691.79;;;-0.99;93.79
41706;BME280;27385;51.096;17.190;2024-01-16T01:09:28;98701.00;;;-1.01;93.50
41706;BME280;27385;51.096;17.190;2024-01-16T01:12:19;98706.55;;;-1.03;93.72
41706;BME280;27385;51.096;17.190;2024-01-16T01:15:10;98710.13;;;-1.05;93.68
41706;BME280;27385;51.096;17.190;2024-01-16T01:18:01;98718.60;;;-1.06;93.83
41706;BME280;27385;51.096;17.190;2024-01-16T01:20:53;98720.27;;;-1.04;93.54
41706;BME280;27385;51.096;17.190;2024-01-16T01:23:45;98729.10;;;-1.01;93.54
41706;BME280;27385;51.096;17.190;2024-01-16T01:26:36;98735.02;;;-1.00;93.64
41706;BME280;27385;51.096;17.190;2024-01-16T01:29:27;98746.57;;;-0.99;93.60
41706;BME280;27385;51.096;17.190;2024-01-16T01:32:18;98743.83;;;-0.96;93.49
41706;BME280;27385;51.096;17.190;2024-01-16T01:35:11;98749.64;;;-0.94;93.39
41706;BME280;27385;51.096;17.190;2024-01-16T01:38:02;98744.47;;;-0.92;93.42
41706;BME280;27385;51.096;17.190;2024-01-16T01:40:53;98745.67;;;-0.93;93.63
41706;BME280;27385;51.096;17.190;2024-01-16T01:43:44;98745.30;;;-0.96;93.42
41706;BME280;27385;51.096;17.190;2024-01-16T01:46:36;98753.02;;;-0.93;93.49
41706;BME280;27385;51.096;17.190;2024-01-16T01:49:28;98755.05;;;-0.92;93.41
41706;BME280;27385;51.096;17.190;2024-01-16T01:52:19;98763.64;;;-0.89;93.54
41706;BME280;27385;51.096;17.190;2024-01-16T01:55:13;98768.55;;;-0.88;93.55
41706;BME280;27385;51.096;17.190;2024-01-16T01:58:04;98778.66;;;-0.86;93.47
41706;BME280;27385;51.096;17.190;2024-01-16T02:00:56;98785.48;;;-0.81;93.39
41706;BME280;27385;51.096;17.190;2024-01-16T02:03:49;98783.96;;;-0.78;93.46
41706;BME280;27385;51.096;17.190;2024-01-16T02:06:40;98778.95;;;-0.75;93.47
41706;BME280;27385;51.096;17.190;2024-01-16T02:09:32;98777.02;;;-0.74;93.33
41706;BME280;27385;51.096;17.190;2024-01-16T02:12:46;98778.66;;;-0.73;93.34
41706;BME280;27385;51.096;17.190;2024-01-16T02:15:37;98787.52;;;-0.71;93.26
41706;BME280;27385;51.096;17.190;2024-01-16T02:18:30;98787.41;;;-0.70;93.17
41706;BME280;27385;51.096;17.190;2024-01-16T02:21:22;98793.34;;;-0.70;93.10
41706;BME280;27385;51.096;17.190;2024-01-16T02:24:16;98798.19;;;-0.71;92.88
41706;BME280;27385;51.096;17.190;2024-01-16T02:27:08;98802.02;;;-0.74;92.95
41706;BME280;27385;51.096;17.190;2024-01-16T02:29:59;98806.89;;;-0.75;92.94
41706;BME280;27385;51.096;17.190;2024-01-16T02:32:50;98816.63;;;-0.73;93.05
41706;BME280;27385;51.096;17.190;2024-01-16T02:35:41;98813.70;;;-0.72;93.10
41706;BME280;27385;51.096;17.190;2024-01-16T02:38:30;98816.08;;;-0.72;93.11
41706;BME280;27385;51.096;17.190;2024-01-16T02:41:21;98823.04;;;-0.72;93.05
41706;BME280;27385;51.096;17.190;2024-01-16T02:44:12;98826.74;;;-0.73;93.32
41706;BME280;27385;51.096;17.190;2024-01-16T02:47:03;98827.59;;;-0.73;93.29
41706;BME280;27385;51.096;17.190;2024-01-16T02:49:56;98833.66;;;-0.74;93.21
41706;BME280;27385;51.096;17.190;2024-01-16T02:52:47;98833.09;;;-0.74;93.28
41706;BME280;27385;51.096;17.190;2024-01-16T02:55:38;98842.77;;;-0.72;93.44
41706;BME280;27385;51.096;17.190;2024-01-16T02:58:27;98837.44;;;-0.72;93.53
41706;BME280;27385;51.096;17.190;2024-01-16T03:01:19;98843.17;;;-0.73;93.59
41706;BME280;27385;51.096;17.190;2024-01-16T03:04:10;98847.10;;;-0.73;93.76
41706;BME280;27385;51.096;17.190;2024-01-16T03:07:00;98852.59;;;-0.74;93.83
41706;BME280;27385;51.096;17.190;2024-01-16T03:09:49;98863.23;;;-0.74;93.95
41706;BME280;27385;51.096;17.190;2024-01-16T03:12:40;98862.86;;;-0.74;93.93
41706;BME280;27385;51.096;17.190;2024-01-16T03:15:31;98865.02;;;-0.76;93.94
41706;BME280;27385;51.096;17.190;2024-01-16T03:18:22;98868.52;;;-0.77;93.91
41706;BME280;27385;51.096;17.190;2024-01-16T03:21:14;98868.44;;;-0.78;93.84
41706;BME280;27385;51.096;17.190;2024-01-16T03:24:06;98878.59;;;-0.82;93.51
41706;BME280;27385;51.096;17.190;2024-01-16T03:26:57;98873.23;;;-0.87;93.44
41706;BME280;27385;51.096;17.190;2024-01-16T03:29:49;98878.36;;;-0.88;93.61
41706;BME280;27385;51.096;17.190;2024-01-16T03:32:40;98875.59;;;-0.92;93.50
41706;BME280;27385;51.096;17.190;2024-01-16T03:35:31;98870.98;;;-0.98;93.58
41706;BME280;27385;51.096;17.190;2024-01-16T03:38:22;98877.33;;;-1.01;93.77
41706;BME280;27385;51.096;17.190;2024-01-16T03:41:13;98884.82;;;-1.06;93.78
41706;BME280;27385;51.096;17.190;2024-01-16T03:44:05;98890.21;;;-1.09;94.07
41706;BME280;27385;51.096;17.190;2024-01-16T03:46:56;98873.48;;;-1.11;94.17
41706;BME280;27385;51.096;17.190;2024-01-16T03:49:47;98882.72;;;-1.13;94.27
41706;BME280;27385;51.096;17.190;2024-01-16T03:52:38;98878.52;;;-1.13;94.38
41706;BME280;27385;51.096;17.190;2024-01-16T03:55:27;98880.63;;;-1.13;94.34
41706;BME280;27385;51.096;17.190;2024-01-16T03:58:18;98882.99;;;-1.13;94.27
41706;BME280;27385;51.096;17.190;2024-01-16T04:01:09;98888.36;;;-1.13;94.41
41706;BME280;27385;51.096;17.190;2024-01-16T04:04:01;98898.11;;;-1.11;94.38
41706;BME280;27385;51.096;17.190;2024-01-16T04:06:52;98899.46;;;-1.09;94.42
41706;BME280;27385;51.096;17.190;2024-01-16T04:09:44;98905.79;;;-1.08;94.48
41706;BME280;27385;51.096;17.190;2024-01-16T04:12:35;98908.98;;;-1.08;94.36
41706;BME280;27385;51.096;17.190;2024-01-16T04:15:24;98915.42;;;-1.06;94.41
41706;BME280;27385;51.096;17.190;2024-01-16T04:18:15;98912.52;;;-1.06;94.36
41706;BME280;27385;51.096;17.190;2024-01-16T04:21:07;98904.25;;;-1.07;94.42
41706;BME280;27385;51.096;17.190;2024-01-16T04:23:58;98902.48;;;-1.08;94.14
41706;BME280;27385;51.096;17.190;2024-01-16T04:26:49;98904.84;;;-1.08;94.16
41706;BME280;27385;51.096;17.190;2024-01-16T04:29:40;98910.29;;;-1.10;94.13
41706;BME280;27385;51.096;17.190;2024-01-16T04:32:32;98913.27;;;-1.10;94.15
41706;BME280;27385;51.096;17.190;2024-01-16T04:35:23;98913.70;;;-1.09;94.20
41706;BME280;27385;51.096;17.190;2024-01-16T04:38:14;98921.51;;;-1.08;94.27
41706;BME280;27385;51.096;17.190;2024-01-16T04:41:05;98927.55;;;-1.09;94.34
41706;BME280;27385;51.096;17.190;2024-01-16T04:43:56;98929.39;;;-1.10;94.41
41706;BME280;27385;51.096;17.190;2024-01-16T04:46:47;98929.96;;;-1.12;94.37
41706;BME280;27385;51.096;17.190;2024-01-16T04:49:36;98926.75;;;-1.11;94.54
41706;BME280;27385;51.096;17.190;2024-01-16T04:52:27;98919.48;;;-1.12;94.69
41706;BME280;27385;51.096;17.190;2024-01-16T04:55:16;98913.31;;;-1.12;94.53
41706;BME280;27385;51.096;17.190;2024-01-16T04:58:08;98921.35;;;-1.12;94.48
41706;BME280;27385;51.096;17.190;2024-01-16T05:00:59;98930.71;;;-1.10;94.42
41706;BME280;27385;51.096;17.190;2024-01-16T05:03:51;98945.45;;;-1.11;94.39
41706;BME280;27385;51.096;17.190;2024-01-16T05:06:42;98955.22;;;-1.14;94.36
41706;BME280;27385;51.096;17.190;2024-01-16T05:09:33;98941.69;;;-1.17;94.62
41706;BME280;27385;51.096;17.190;2024-01-16T05:12:24;98951.66;;;-1.19;94.81
41706;BME280;27385;51.096;17.190;2024-01-16T05:15:15;98955.13;;;-1.19;95.01
41706;BME280;27385;51.096;17.190;2024-01-16T05:18:06;98951.20;;;-1.19;95.10
41706;BME280;27385;51.096;17.190;2024-01-16T05:20:58;98948.11;;;-1.17;95.10
41706;BME280;27385;51.096;17.190;2024-01-16T05:23:48;98955.03;;;-1.16;95.11
41706;BME280;27385;51.096;17.190;2024-01-16T05:26:39;98957.47;;;-1.16;95.12
41706;BME280;27385;51.096;17.190;2024-01-16T05:29:28;98963.39;;;-1.20;95.17
41706;BME280;27385;51.096;17.190;2024-01-16T05:32:19;98958.86;;;-1.24;95.32
41706;BME280;27385;51.096;17.190;2024-01-16T05:35:11;98969.56;;;-1.24;95.40
41706;BME280;27385;51.096;17.190;2024-01-16T05:38:02;98968.94;;;-1.21;95.55
41706;BME280;27385;51.096;17.190;2024-01-16T05:40:53;98966.88;;;-1.19;95.53
41706;BME280;27385;51.096;17.190;2024-01-16T05:43:44;98962.91;;;-1.14;95.63
41706;BME280;27385;51.096;17.190;2024-01-16T05:46:36;98968.94;;;-1.12;95.61
41706;BME280;27385;51.096;17.190;2024-01-16T05:49:27;98970.60;;;-1.10;95.54
41706;BME280;27385;51.096;17.190;2024-01-16T05:52:16;98970.99;;;-1.06;95.62
41706;BME280;27385;51.096;17.190;2024-01-16T05:55:07;98968.83;;;-1.05;95.70
41706;BME280;27385;51.096;17.190;2024-01-16T05:57:58;98988.39;;;-1.05;95.64
41706;BME280;27385;51.096;17.190;2024-01-16T06:00:50;98976.02;;;-1.07;95.63
41706;BME280;27385;51.096;17.190;2024-01-16T06:03:40;98963.66;;;-1.04;95.81
41706;BME280;27385;51.096;17.190;2024-01-16T06:06:31;98982.18;;;-1.07;95.78
41706;BME280;27385;51.096;17.190;2024-01-16T06:09:22;98991.98;;;-1.11;95.84
41706;BME280;27385;51.096;17.190;2024-01-16T06:12:13;98999.60;;;-1.11;95.96
41706;BME280;27385;51.096;17.190;2024-01-16T06:15:05;99004.30;;;-1.12;95.90
41706;BME280;27385;51.096;17.190;2024-01-16T06:17:56;99000.95;;;-1.12;95.98
41706;BME280;27385;51.096;17.190;2024-01-16T06:20:46;99019.41;;;-1.18;95.57
41706;BME280;27385;51.096;17.190;2024-01-16T06:23:37;99030.62;;;-1.22;95.67
41706;BME280;27385;51.096;17.190;2024-01-16T06:26:28;99036.56;;;-1.25;95.88
41706;BME280;27385;51.096;17.190;2024-01-16T06:29:19;99044.30;;;-1.28;95.70
41706;BME280;27385;51.096;17.190;2024-01-16T06:32:11;99041.38;;;-1.33;95.58
41706;BME280;27385;51.096;17.190;2024-01-16T06:35:02;99040.74;;;-1.36;95.44
41706;BME280;27385;51.096;17.190;2024-01-16T06:37:53;99047.33;;;-1.40;95.26
41706;BME280;27385;51.096;17.190;2024-01-16T06:40:43;99051.73;;;-1.40;95.25
41706;BME280;27385;51.096;17.190;2024-01-16T06:43:35;99053.59;;;-1.43;95.16
41706;BME280;27385;51.096;17.190;2024-01-16T06:46:26;99053.63;;;-1.45;95.11
41706;BME280;27385;51.096;17.190;2024-01-16T06:49:17;99051.77;;;-1.45;94.95
41706;BME280;27385;51.096;17.190;2024-01-16T06:52:09;99056.80;;;-1.40;95.17
41706;BME280;27385;51.096;17.190;2024-01-16T06:55:00;99066.16;;;-1.36;94.87
41706;BME280;27385;51.096;17.190;2024-01-16T06:57:51;99070.58;;;-1.34;94.53
41706;BME280;27385;51.096;17.190;2024-01-16T07:00:42;99077.29;;;-1.33;94.28
41706;BME280;27385;51.096;17.190;2024-01-16T07:03:31;99082.65;;;-1.35;94.01
41706;BME280;27385;51.096;17.190;2024-01-16T07:06:21;99092.46;;;-1.40;93.88
41706;BME280;27385;51.096;17.190;2024-01-16T07:09:12;99098.42;;;-1.44;93.76
41706;BME280;27385;51.096;17.190;2024-01-16T07:12:01;99100.55;;;-1.48;93.75
41706;BME280;27385;51.096;17.190;2024-01-16T07:14:53;99107.99;;;-1.52;93.87
41706;BME280;27385;51.096;17.190;2024-01-16T07:17:42;99111.29;;;-1.50;94.03
41706;BME280;27385;51.096;17.190;2024-01-16T07:20:32;99118.55;;;-1.49;93.96
41706;BME280;27385;51.096;17.190;2024-01-16T07:23:23;99125.52;;;-1.50;93.93
41706;BME280;27385;51.096;17.190;2024-01-16T07:26:14;99135.70;;;-1.53;93.71
41706;BME280;27385;51.096;17.190;2024-01-16T07:29:05;99139.77;;;-1.53;93.89
41706;BME280;27385;51.096;17.190;2024-01-16T07:31:56;99150.11;;;-1.55;93.84
41706;BME280;27385;51.096;17.190;2024-01-16T07:34:47;99160.12;;;-1.55;93.98
41706;BME280;27385;51.096;17.190;2024-01-16T07:37:36;99166.34;;;-1.53;94.02
41706;BME280;27385;51.096;17.190;2024-01-16T07:40:27;99168.20;;;-1.51;93.99
41706;BME280;27385;51.096;17.190;2024-01-16T07:43:18;99173.75;;;-1.49;94.04
41706;BME280;27385;51.096;17.190;2024-01-16T07:46:08;99182.09;;;-1.46;94.02
41706;BME280;27385;51.096;17.190;2024-01-16T07:48:59;99183.80;;;-1.44;94.18
41706;BME280;27385;51.096;17.190;2024-01-16T07:51:49;99190.77;;;-1.40;94.07
41706;BME280;27385;51.096;17.190;2024-01-16T07:54:40;99191.20;;;-1.42;93.89
41706;BME280;27385;51.096;17.190;2024-01-16T07:57:29;99191.59;;;-1.38;94.03
41706;BME280;27385;51.096;17.190;2024-01-16T08:00:20;99196.52;;;-1.34;94.04
41706;BME280;27385;51.096;17.190;2024-01-16T08:03:11;99200.77;;;-1.32;93.92
41706;BME280;27385;51.096;17.190;2024-01-16T08:06:04;99204.25;;;-1.27;94.17
41706;BME280;27385;51.096;17.190;2024-01-16T08:08:55;99205.77;;;-1.21;94.03
41706;BME280;27385;51.096;17.190;2024-01-16T08:11:46;99206.86;;;-1.17;93.98
41706;BME280;27385;51.096;17.190;2024-01-16T08:14:37;99210.48;;;-1.15;93.76
41706;BME280;27385;51.096;17.190;2024-01-16T08:17:28;99228.66;;;-1.16;93.60
41706;BME280;27385;51.096;17.190;2024-01-16T08:20:19;99239.34;;;-1.18;93.45
41706;BME280;27385;51.096;17.190;2024-01-16T08:23:10;99240.84;;;-1.19;93.47
41706;BME280;27385;51.096;17.190;2024-01-16T08:25:59;99245.40;;;-1.12;93.84
41706;BME280;27385;51.096;17.190;2024-01-16T08:28:50;99249.55;;;-1.05;93.85
41706;BME280;27385;51.096;17.190;2024-01-16T08:31:41;99256.89;;;-1.00;93.73
41706;BME280;27385;51.096;17.190;2024-01-16T08:34:30;99261.89;;;-1.01;93.52
41706;BME280;27385;51.096;17.190;2024-01-16T08:37:21;99268.92;;;-1.00;93.53
41706;BME280;27385;51.096;17.190;2024-01-16T08:40:11;99274.95;;;-1.04;93.24
41706;BME280;27385;51.096;17.190;2024-01-16T08:43:02;99272.84;;;-1.07;93.18
41706;BME280;27385;51.096;17.190;2024-01-16T08:45:52;99269.23;;;-1.11;93.08
41706;BME280;27385;51.096;17.190;2024-01-16T08:48:43;99273.25;;;-1.05;93.58
41706;BME280;27385;51.096;17.190;2024-01-16T08:51:32;99275.71;;;-0.96;93.65
41706;BME280;27385;51.096;17.190;2024-01-16T08:54:23;99279.63;;;-0.84;93.77
41706;BME280;27385;51.096;17.190;2024-01-16T08:57:15;99290.03;;;-0.78;93.34
41706;BME280;27385;51.096;17.190;2024-01-16T09:00:07;99286.38;;;-0.79;92.78
41706;BME280;27385;51.096;17.190;2024-01-16T09:02:58;99282.80;;;-0.80;92.84
41706;BME280;27385;51.096;17.190;2024-01-16T09:05:49;99286.96;;;-0.77;92.90
41706;BME280;27385;51.096;17.190;2024-01-16T09:08:40;99289.11;;;-0.75;92.95
41706;BME280;27385;51.096;17.190;2024-01-16T09:11:31;99289.05;;;-0.75;92.86
41706;BME280;27385;51.096;17.190;2024-01-16T09:14:23;99292.95;;;-0.75;92.74
41706;BME280;27385;51.096;17.190;2024-01-16T09:17:12;99296.04;;;-0.76;92.62
41706;BME280;27385;51.096;17.190;2024-01-16T09:20:04;99295.20;;;-0.74;92.90
41706;BME280;27385;51.096;17.190;2024-01-16T09:22:56;99287.62;;;-0.67;93.02
41706;BME280;27385;51.096;17.190;2024-01-16T09:25:47;99287.71;;;-0.62;92.96
41706;BME280;27385;51.096;17.190;2024-01-16T09:28:38;99297.74;;;-0.58;92.97
41706;BME280;27385;51.096;17.190;2024-01-16T09:31:29;99292.79;;;-0.61;92.46
41706;BME280;27385;51.096;17.190;2024-01-16T09:34:21;99302.70;;;-0.63;92.64
41706;BME280;27385;51.096;17.190;2024-01-16T09:37:13;99308.97;;;-0.63;92.72
41706;BME280;27385;51.096;17.190;2024-01-16T09:40:06;99304.31;;;-0.58;93.07
41706;BME280;27385;51.096;17.190;2024-01-16T09:42:57;99305.02;;;-0.48;93.13
41706;BME280;27385;51.096;17.190;2024-01-16T09:45:48;99308.70;;;-0.45;92.83
41706;BME280;27385;51.096;17.190;2024-01-16T09:48:40;99313.15;;;-0.44;92.80
41706;BME280;27385;51.096;17.190;2024-01-16T09:51:32;99318.21;;;-0.40;93.06
41706;BME280;27385;51.096;17.190;2024-01-16T09:54:22;99317.78;;;-0.34;92.74
41706;BME280;27385;51.096;17.190;2024-01-16T09:57:14;99318.44;;;-0.29;92.74
41706;BME280;27385;51.096;17.190;2024-01-16T10:00:08;99316.73;;;-0.26;92.62
41706;BME280;27385;51.096;17.190;2024-01-16T10:03:01;99327.23;;;-0.21;92.68
41706;BME280;27385;51.096;17.190;2024-01-16T10:05:54;99332.68;;;-0.22;92.52
41706;BME280;27385;51.096;17.190;2024-01-16T10:08:45;99340.80;;;-0.24;92.56
41706;BME280;27385;51.096;17.190;2024-01-16T10:11:37;99342.74;;;-0.23;92.27
41706;BME280;27385;51.096;17.190;2024-01-16T10:14:29;99340.94;;;-0.23;92.09
41706;BME280;27385;51.096;17.190;2024-01-16T10:17:20;99338.67;;;-0.21;92.01
41706;BME280;27385;51.096;17.190;2024-01-16T10:20:12;99345.82;;;-0.17;91.73
41706;BME280;27385;51.096;17.190;2024-01-16T10:23:04;99343.70;;;-0.18;91.67
41706;BME280;27385;51.096;17.190;2024-01-16T10:26:08;99348.16;;;-0.21;91.35
41706;BME280;27385;51.096;17.190;2024-01-16T10:29:04;99346.91;;;-0.30;90.86
41706;BME280;27385;51.096;17.190;2024-01-16T10:31:55;99348.31;;;-0.37;91.04
41706;BME280;27385;51.096;17.190;2024-01-16T10:34:44;99354.52;;;-0.38;91.37
41706;BME280;27385;51.096;17.190;2024-01-16T10:37:43;99358.60;;;-0.39;91.37
41706;BME280;27385;51.096;17.190;2024-01-16T10:40:34;99360.68;;;-0.40;91.25
41706;BME280;27385;51.096;17.190;2024-01-16T10:43:25;99359.77;;;-0.41;91.40
41706;BME280;27385;51.096;17.190;2024-01-16T10:46:14;99363.78;;;-0.45;91.34
41706;BME280;27385;51.096;17.190;2024-01-16T10:49:05;99359.58;;;-0.54;91.41
41706;BME280;27385;51.096;17.190;2024-01-16T10:51:57;99367.36;;;-0.58;91.41
41706;BME280;27385;51.096;17.190;2024-01-16T10:54:48;99372.17;;;-0.63;91.66
41706;BME280;27385;51.096;17.190;2024-01-16T10:57:41;99370.95;;;-0.62;92.09
41706;BME280;27385;51.096;17.190;2024-01-16T11:00:34;99367.04;;;-0.58;92.12
41706;BME280;27385;51.096;17.190;2024-01-16T11:03:34;99372.33;;;-0.52;92.27
41706;BME280;27385;51.096;17.190;2024-01-16T11:06:26;99376.42;;;-0.46;92.02
41706;BME280;27385;51.096;17.190;2024-01-16T11:09:17;99378.60;;;-0.39;92.20
41706;BME280;27385;51.096;17.190;2024-01-16T11:12:09;99377.91;;;-0.36;91.76
41706;BME280;27385;51.096;17.190;2024-01-16T11:15:07;99381.18;;;-0.42;91.69
41706;BME280;27385;51.096;17.190;2024-01-16T11:18:00;99382.13;;;-0.43;91.61
41706;BME280;27385;51.096;17.190;2024-01-16T11:20:52;99378.25;;;-0.44;91.63
41706;BME280;27385;51.096;17.190;2024-01-16T11:23:45;99379.54;;;-0.42;91.60
41706;BME280;27385;51.096;17.190;2024-01-16T11:26:40;99379.31;;;-0.50;91.07
41706;BME280;27385;51.096;17.190;2024-01-16T11:29:38;99381.33;;;-0.55;91.20
41706;BME280;27385;51.096;17.190;2024-01-16T11:32:36;99388.31;;;-0.60;91.15
41706;BME280;27385;51.096;17.190;2024-01-16T11:35:34;99393.91;;;-0.62;91.45
41706;BME280;27385;51.096;17.190;2024-01-16T11:38:26;99394.19;;;-0.60;91.58
41706;BME280;27385;51.096;17.190;2024-01-16T11:41:49;99390.81;;;-0.53;91.86
41706;BME280;27385;51.096;17.190;2024-01-16T11:44:45;99392.50;;;-0.44;91.70
41706;BME280;27385;51.096;17.190;2024-01-16T11:47:36;99394.11;;;-0.36;91.89
41706;BME280;27385;51.096;17.190;2024-01-16T11:50:29;99395.25;;;-0.30;91.51
41706;BME280;27385;51.096;17.190;2024-01-16T11:53:37;99397.05;;;-0.30;91.37
41706;BME280;27385;51.096;17.190;2024-01-16T11:56:46;99396.46;;;-0.28;91.56
41706;BME280;27385;51.096;17.190;2024-01-16T11:59:57;99399.80;;;-0.23;91.64
41706;BME280;27385;51.096;17.190;2024-01-16T12:02:51;99398.76;;;-0.23;91.54
41706;BME280;27385;51.096;17.190;2024-01-16T12:05:42;99397.94;;;-0.24;91.46
41706;BME280;27385;51.096;17.190;2024-01-16T12:08:34;99402.58;;;-0.22;91.79
41706;BME280;27385;51.096;17.190;2024-01-16T12:11:25;99408.84;;;-0.19;92.02
41706;BME280;27385;51.096;17.190;2024-01-16T12:14:16;99414.12;;;-0.13;92.11
41706;BME280;27385;51.096;17.190;2024-01-16T12:17:13;99415.11;;;-0.15;91.85
41706;BME280;27385;51.096;17.190;2024-01-16T12:20:19;99414.55;;;-0.14;92.13
41706;BME280;27385;51.096;17.190;2024-01-16T12:23:10;99420.37;;;-0.15;91.94
41706;BME280;27385;51.096;17.190;2024-01-16T12:26:01;99420.80;;;-0.24;91.64
41706;BME280;27385;51.096;17.190;2024-01-16T12:28:53;99425.83;;;-0.31;91.74
41706;BME280;27385;51.096;17.190;2024-01-16T12:31:50;99425.01;;;-0.37;91.79
41706;BME280;27385;51.096;17.190;2024-01-16T12:34:47;99426.59;;;-0.41;91.71
41706;BME280;27385;51.096;17.190;2024-01-16T12:37:38;99427.85;;;-0.45;91.82
41706;BME280;27385;51.096;17.190;2024-01-16T12:40:30;99431.13;;;-0.51;91.78
41706;BME280;27385;51.096;17.190;2024-01-16T12:43:21;99434.76;;;-0.56;91.92
41706;BME280;27385;51.096;17.190;2024-01-16T12:46:14;99437.24;;;-0.59;91.99
41706;BME280;27385;51.096;17.190;2024-01-16T12:49:04;99440.86;;;-0.60;92.26
41706;BME280;27385;51.096;17.190;2024-01-16T12:52:17;99442.59;;;-0.60;92.41
41706;BME280;27385;51.096;17.190;2024-01-16T12:55:09;99441.11;;;-0.61;92.43
41706;BME280;27385;51.096;17.190;2024-01-16T12:58:19;99439.73;;;-0.58;92.57
41706;BME280;27385;51.096;17.190;2024-01-16T13:01:26;99444.55;;;-0.53;92.50
41706;BME280;27385;51.096;17.190;2024-01-16T13:04:18;99450.27;;;-0.48;92.68
41706;BME280;27385;51.096;17.190;2024-01-16T13:07:11;99453.88;;;-0.46;92.58
41706;BME280;27385;51.096;17.190;2024-01-16T13:10:10;99461.96;;;-0.46;92.50
41706;BME280;27385;51.096;17.190;2024-01-16T13:13:15;99462.20;;;-0.47;92.49
41706;BME280;27385;51.096;17.190;2024-01-16T13:16:06;99451.45;;;-0.46;92.68
41706;BME280;27385;51.096;17.190;2024-01-16T13:19:02;99453.24;;;-0.45;92.61
41706;BME280;27385;51.096;17.190;2024-01-16T13:21:58;99451.10;;;-0.47;92.43
41706;BME280;27385;51.096;17.190;2024-01-16T13:24:48;99455.09;;;-0.51;92.26
41706;BME280;27385;51.096;17.190;2024-01-16T13:27:39;99450.78;;;-0.55;91.91
41706;BME280;27385;51.096;17.190;2024-01-16T13:30:28;99448.10;;;-0.58;91.85
41706;BME280;27385;51.096;17.190;2024-01-16T13:33:20;99451.98;;;-0.59;91.92
41706;BME280;27385;51.096;17.190;2024-01-16T13:36:11;99457.40;;;-0.60;91.83
41706;BME280;27385;51.096;17.190;2024-01-16T13:39:02;99457.77;;;-0.62;91.74
41706;BME280;27385;51.096;17.190;2024-01-16T13:41:53;99456.09;;;-0.65;91.61
41706;BME280;27385;51.096;17.190;2024-01-16T13:44:44;99456.23;;;-0.67;91.63
41706;BME280;27385;51.096;17.190;2024-01-16T13:47:35;99459.95;;;-0.67;91.86
41706;BME280;27385;51.096;17.190;2024-01-16T13:50:30;99458.70;;;-0.66;91.86
41706;BME280;27385;51.096;17.190;2024-01-16T13:53:21;99461.54;;;-0.64;91.99
41706;BME280;27385;51.096;17.190;2024-01-16T13:56:10;99461.17;;;-0.61;91.97
41706;BME280;27385;51.096;17.190;2024-01-16T13:59:01;99458.05;;;-0.62;91.91
41706;BME280;27385;51.096;17.190;2024-01-16T14:01:53;99462.02;;;-0.60;91.89
41706;BME280;27385;51.096;17.190;2024-01-16T14:04:46;99462.66;;;-0.61;91.79
41706;BME280;27385;51.096;17.190;2024-01-16T14:07:37;99467.77;;;-0.58;91.90
41706;BME280;27385;51.096;17.190;2024-01-16T14:10:28;99468.71;;;-0.54;92.03
41706;BME280;27385;51.096;17.190;2024-01-16T14:13:19;99473.60;;;-0.52;91.94
41706;BME280;27385;51.096;17.190;2024-01-16T14:16:09;99479.11;;;-0.49;91.78
41706;BME280;27385;51.096;17.190;2024-01-16T14:18:58;99476.30;;;-0.50;91.78
41706;BME280;27385;51.096;17.190;2024-01-16T14:21:49;99476.08;;;-0.50;91.64
41706;BME280;27385;51.096;17.190;2024-01-16T14:24:40;99477.66;;;-0.52;91.73
41706;BME280;27385;51.096;17.190;2024-01-16T14:27:31;99482.59;;;-0.51;91.69
41706;BME280;27385;51.096;17.190;2024-01-16T14:30:22;99486.57;;;-0.51;91.69
41706;BME280;27385;51.096;17.190;2024-01-16T14:33:14;99478.74;;;-0.51;91.83
41706;BME280;27385;51.096;17.190;2024-01-16T14:36:06;99477.09;;;-0.50;91.93
41706;BME280;27385;51.096;17.190;2024-01-16T14:38:57;99478.71;;;-0.46;92.06
41706;BME280;27385;51.096;17.190;2024-01-16T14:41:48;99478.59;;;-0.47;91.98
41706;BME280;27385;51.096;17.190;2024-01-16T14:44:39;99478.70;;;-0.49;91.85
41706;BME280;27385;51.096;17.190;2024-01-16T14:47:30;99476.65;;;-0.51;91.91
41706;BME280;27385;51.096;17.190;2024-01-16T14:50:19;99482.91;;;-0.51;92.03
41706;BME280;27385;51.096;17.190;2024-01-16T14:53:11;99476.73;;;-0.52;92.25
41706;BME280;27385;51.096;17.190;2024-01-16T14:56:02;99484.20;;;-0.49;92.31
41706;BME280;27385;51.096;17.190;2024-01-16T14:58:54;99489.13;;;-0.45;92.43